sensor_id;sensor_type;location;lat;lon;timestamp;temperature;humidity
52509;DHT22;38420;53.150;6.370;2024-01-15T00:01:17;2.60;99.90
52509;DHT22;38420;53.150;6.370;2024-01-15T00:03:42;2.60;99.90
52509;DHT22;38420;53.150;6.370;2024-01-15T00:06:08;2.60;99.90
52509;DHT22;38420;53.150;6.370;2024-01-15T00:08:34;2.60;99.90
52509;DHT22;38420;53.150;6.370;2024-01-15T00:10:59;2.60;99.90
52509;DHT22;38420;53.150;6.370;2024-01-15T00:13:25;2.50;99.90
52509;DHT22;38420;53.150;6.370;2024-01-15T00:15:51;2.40;99.90
52509;DHT22;38420;53.150;6.370;2024-01-15T00:18:16;2.20;99.90
52509;DHT22;38420;53.150;6.370;2024-01-15T00:20:42;2.20;99.90
52509;DHT22;38420;53.150;6.370;2024-01-15T00:23:07;2.10;99.90
52509;DHT22;38420;53.150;6.370;2024-01-15T00:25:33;2.00;99.90
52509;DHT22;38420;53.150;6.370;2024-01-15T00:27:59;2.00;99.90
52509;DHT22;38420;53.150;6.370;2024-01-15T00:30:24;2.00;99.90
52509;DHT22;38420;53.150;6.370;2024-01-15T00:32:50;2.00;99.90
52509;DHT22;38420;53.150;6.370;2024-01-15T00:35:15;1.80;99.90
52509;DHT22;38420;53.150;6.370;2024-01-15T00:37:41;1.90;99.90
52509;DHT22;38420;53.150;6.370;2024-01-15T00:40:07;1.70;99.90
52509;DHT22;38420;53.150;6.370;2024-01-15T00:42:33;1.80;99.90
52509;DHT22;38420;53.150;6.370;2024-01-15T00:44:59;1.80;99.90
52509;DHT22;38420;53.150;6.370;2024-01-15T00:47:25;1.70;99.90
52509;DHT22;38420;53.150;6.370;2024-01-15T00:49:51;1.50;99.90
52509;DHT22;38420;53.150;6.370;2024-01-15T00:52:16;1.40;99.90
52509;DHT22;38420;53.150;6.370;2024-01-15T00:54:42;1.40;99.90
52509;DHT22;38420;53.150;6.370;2024-01-15T00:57:07;1.60;99.90
52509;DHT22;38420;53.150;6.370;2024-01-15T00:59:33;1.70;99.90
52509;DHT22;38420;53.150;6.370;2024-01-15T01:01:58;1.80;99.90
52509;DHT22;38420;53.150;6.370;2024-01-15T01:04:24;1.50;99.90
52509;DHT22;38420;53.150;6.370;2024-01-15T01:06:50;1.70;99.90
52509;DHT22;38420;53.150;6.370;2024-01-15T01:09:15;1.70;99.90
52509;DHT22;38420;53.150;6.370;2024-01-15T01:11:41;2.20;99.90
52509;DHT22;38420;53.150;6.370;2024-01-15T01:14:06;2.10;99.90
52509;DHT22;38420;53.150;6.370;2024-01-15T01:16:32;2.00;99.90
52509;DHT22;38420;53.150;6.370;2024-01-15T01:19:06;2.30;99.90
52509;DHT22;38420;53.150;6.370;2024-01-15T01:21:33;2.20;99.90
52509;DHT22;38420;53.150;6.370;2024-01-15T01:23:59;2.20;99.90
52509;DHT22;38420;53.150;6.370;2024-01-15T01:26:24;2.50;99.90
52509;DHT22;38420;53.150;6.370;2024-01-15T01:28:50;2.30;99.90
52509;DHT22;38420;53.150;6.370;2024-01-15T01:31:16;2.40;99.90
52509;DHT22;38420;53.150;6.370;2024-01-15T01:33:42;2.20;99.90
52509;DHT22;38420;53.150;6.370;2024-01-15T01:36:09;2.40;99.90
52509;DHT22;38420;53.150;6.370;2024-01-15T01:38:36;2.40;99.90
52509;DHT22;38420;53.150;6.370;2024-01-15T01:41:01;2.50;99.90
52509;DHT22;38420;53.150;6.370;2024-01-15T01:43:27;2.40;99.90
52509;DHT22;38420;53.150;6.370;2024-01-15T01:45:55;2.30;99.90
52509;DHT22;38420;53.150;6.370;2024-01-15T01:48:22;2.40;99.90
52509;DHT22;38420;53.150;6.370;2024-01-15T01:50:47;2.40;99.90
52509;DHT22;38420;53.150;6.370;2024-01-15T01:53:13;2.40;99.90
52509;DHT22;38420;53.150;6.370;2024-01-15T01:55:39;2.30;99.90
52509;DHT22;38420;53.150;6.370;2024-01-15T01:58:05;2.40;99.90
52509;DHT22;38420;53.150;6.370;2024-01-15T02:00:32;2.30;99.90
52509;DHT22;38420;53.150;6.370;2024-01-15T02:02:59;2.30;99.90
52509;DHT22;38420;53.150;6.370;2024-01-15T02:05:25;2.40;99.90
52509;DHT22;38420;53.150;6.370;2024-01-15T02:07:52;2.40;99.90
52509;DHT22;38420;53.150;6.370;2024-01-15T02:10:17;2.10;99.90
52509;DHT22;38420;53.150;6.370;2024-01-15T02:12:44;2.10;99.90
52509;DHT22;38420;53.150;6.370;2024-01-15T02:15:10;2.30;99.90
52509;DHT22;38420;53.150;6.370;2024-01-15T02:17:59;2.20;99.90
52509;DHT22;38420;53.150;6.370;2024-01-15T02:20:25;2.10;99.90
52509;DHT22;38420;53.150;6.370;2024-01-15T02:22:51;2.10;99.90
52509;DHT22;38420;53.150;6.370;2024-01-15T02:25:18;2.10;99.90
52509;DHT22;38420;53.150;6.370;2024-01-15T02:27:44;2.10;99.90
52509;DHT22;38420;53.150;6.370;2024-01-15T02:30:11;2.00;99.90
52509;DHT22;38420;53.150;6.370;2024-01-15T02:32:38;2.20;99.90
52509;DHT22;38420;53.150;6.370;2024-01-15T02:35:04;2.20;99.90
52509;DHT22;38420;53.150;6.370;2024-01-15T02:37:29;2.10;99.90
52509;DHT22;38420;53.150;6.370;2024-01-15T02:39:55;2.00;99.90
52509;DHT22;38420;53.150;6.370;2024-01-15T02:42:20;2.40;99.90
52509;DHT22;38420;53.150;6.370;2024-01-15T02:44:46;2.30;99.90
52509;DHT22;38420;53.150;6.370;2024-01-15T02:47:11;2.00;99.90
52509;DHT22;38420;53.150;6.370;2024-01-15T02:49:37;2.10;99.90
52509;DHT22;38420;53.150;6.370;2024-01-15T02:52:03;2.10;99.90
52509;DHT22;38420;53.150;6.370;2024-01-15T02:54:28;2.40;99.90
52509;DHT22;38420;53.150;6.370;2024-01-15T02:56:54;2.30;99.90
52509;DHT22;38420;53.150;6.370;2024-01-15T02:59:19;2.50;99.90
52509;DHT22;38420;53.150;6.370;2024-01-15T03:01:45;2.50;99.90
52509;DHT22;38420;53.150;6.370;2024-01-15T03:04:10;2.50;99.90
52509;DHT22;38420;53.150;6.370;2024-01-15T03:06:36;2.60;99.90
52509;DHT22;38420;53.150;6.370;2024-01-15T03:09:02;2.70;99.90
52509;DHT22;38420;53.150;6.370;2024-01-15T03:11:29;2.70;99.90
52509;DHT22;38420;53.150;6.370;2024-01-15T03:13:54;2.50;99.90
52509;DHT22;38420;53.150;6.370;2024-01-15T03:16:20;2.70;99.90
52509;DHT22;38420;53.150;6.370;2024-01-15T03:18:46;2.50;99.90
52509;DHT22;38420;53.150;6.370;2024-01-15T03:21:11;2.60;99.90
52509;DHT22;38420;53.150;6.370;2024-01-15T03:23:37;2.50;99.90
52509;DHT22;38420;53.150;6.370;2024-01-15T03:26:03;2.40;99.90
52509;DHT22;38420;53.150;6.370;2024-01-15T03:28:31;2.30;99.90
52509;DHT22;38420;53.150;6.370;2024-01-15T03:30:57;2.40;99.90
52509;DHT22;38420;53.150;6.370;2024-01-15T03:33:22;2.40;99.90
52509;DHT22;38420;53.150;6.370;2024-01-15T03:35:48;2.40;99.90
52509;DHT22;38420;53.150;6.370;2024-01-15T03:38:13;2.50;99.90
52509;DHT22;38420;53.150;6.370;2024-01-15T03:40:39;2.40;99.90
52509;DHT22;38420;53.150;6.370;2024-01-15T03:43:05;2.30;99.90
52509;DHT22;38420;53.150;6.370;2024-01-15T03:45:30;2.50;99.90
52509;DHT22;38420;53.150;6.370;2024-01-15T03:47:56;2.40;99.90
52509;DHT22;38420;53.150;6.370;2024-01-15T03:50:21;2.20;99.90
52509;DHT22;38420;53.150;6.370;2024-01-15T03:52:47;2.30;99.90
52509;DHT22;38420;53.150;6.370;2024-01-15T03:55:12;2.30;99.90
52509;DHT22;38420;53.150;6.370;2024-01-15T03:57:38;2.30;99.90
52509;DHT22;38420;53.150;6.370;2024-01-15T04:00:04;2.30;99.90
52509;DHT22;38420;53.150;6.370;2024-01-15T04:02:30;2.60;99.90
52509;DHT22;38420;53.150;6.370;2024-01-15T04:04:55;2.50;99.90
52509;DHT22;38420;53.150;6.370;2024-01-15T04:07:21;2.50;99.90
52509;DHT22;38420;53.150;6.370;2024-01-15T04:09:46;2.50;99.90
52509;DHT22;38420;53.150;6.370;2024-01-15T04:12:12;2.60;99.90
52509;DHT22;38420;53.150;6.370;2024-01-15T04:14:38;2.50;99.90
52509;DHT22;38420;53.150;6.370;2024-01-15T04:17:03;2.50;99.90
52509;DHT22;38420;53.150;6.370;2024-01-15T04:19:29;2.10;99.90
52509;DHT22;38420;53.150;6.370;2024-01-15T04:21:54;1.90;99.90
52509;DHT22;38420;53.150;6.370;2024-01-15T04:24:20;1.90;99.90
52509;DHT22;38420;53.150;6.370;2024-01-15T04:26:46;1.70;99.90
52509;DHT22;38420;53.150;6.370;2024-01-15T04:29:11;1.80;99.90
52509;DHT22;38420;53.150;6.370;2024-01-15T04:31:37;1.70;99.90
52509;DHT22;38420;53.150;6.370;2024-01-15T04:34:03;1.80;99.90
52509;DHT22;38420;53.150;6.370;2024-01-15T04:36:28;1.60;99.90
52509;DHT22;38420;53.150;6.370;2024-01-15T04:38:54;1.60;99.90
52509;DHT22;38420;53.150;6.370;2024-01-15T04:41:19;1.60;99.90
52509;DHT22;38420;53.150;6.370;2024-01-15T04:43:46;1.80;99.90
52509;DHT22;38420;53.150;6.370;2024-01-15T04:46:12;1.70;99.90
52509;DHT22;38420;53.150;6.370;2024-01-15T04:48:37;1.70;99.90
52509;DHT22;38420;53.150;6.370;2024-01-15T04:51:09;1.70;99.90
52509;DHT22;38420;53.150;6.370;2024-01-15T04:53:35;1.70;99.90
52509;DHT22;38420;53.150;6.370;2024-01-15T04:56:01;1.50;99.90
52509;DHT22;38420;53.150;6.370;2024-01-15T04:58:26;1.60;99.90
52509;DHT22;38420;53.150;6.370;2024-01-15T05:00:52;1.60;99.90
52509;DHT22;38420;53.150;6.370;2024-01-15T05:03:19;1.60;99.90
52509;DHT22;38420;53.150;6.370;2024-01-15T05:05:45;1.50;99.90
52509;DHT22;38420;53.150;6.370;2024-01-15T05:08:11;1.40;99.90
52509;DHT22;38420;53.150;6.370;2024-01-15T05:10:37;1.50;99.90
52509;DHT22;38420;53.150;6.370;2024-01-15T05:13:02;1.50;99.90
52509;DHT22;38420;53.150;6.370;2024-01-15T05:15:28;1.70;99.90
52509;DHT22;38420;53.150;6.370;2024-01-15T05:17:55;1.70;99.90
52509;DHT22;38420;53.150;6.370;2024-01-15T05:20:20;1.70;99.90
52509;DHT22;38420;53.150;6.370;2024-01-15T05:22:46;1.90;99.90
52509;DHT22;38420;53.150;6.370;2024-01-15T05:25:11;1.80;99.90
52509;DHT22;38420;53.150;6.370;2024-01-15T05:27:37;1.90;99.90
52509;DHT22;38420;53.150;6.370;2024-01-15T05:30:03;1.90;99.90
52509;DHT22;38420;53.150;6.370;2024-01-15T05:32:29;1.70;99.90
52509;DHT22;38420;53.150;6.370;2024-01-15T05:34:54;1.70;99.90
52509;DHT22;38420;53.150;6.370;2024-01-15T05:37:20;1.60;99.90
52509;DHT22;38420;53.150;6.370;2024-01-15T05:39:46;1.70;99.90
52509;DHT22;38420;53.150;6.370;2024-01-15T05:42:11;1.60;99.90
52509;DHT22;38420;53.150;6.370;2024-01-15T05:44:37;1.70;99.90
52509;DHT22;38420;53.150;6.370;2024-01-15T05:47:03;1.60;99.90
52509;DHT22;38420;53.150;6.370;2024-01-15T05:49:29;1.50;99.90
52509;DHT22;38420;53.150;6.370;2024-01-15T05:51:55;1.40;99.90
52509;DHT22;38420;53.150;6.370;2024-01-15T05:54:20;1.40;99.90
52509;DHT22;38420;53.150;6.370;2024-01-15T05:56:46;1.30;99.90
52509;DHT22;38420;53.150;6.370;2024-01-15T05:59:12;1.30;99.90
52509;DHT22;38420;53.150;6.370;2024-01-15T06:01:37;1.30;99.90
52509;DHT22;38420;53.150;6.370;2024-01-15T06:04:03;1.40;99.90
52509;DHT22;38420;53.150;6.370;2024-01-15T06:06:29;1.50;99.90
52509;DHT22;38420;53.150;6.370;2024-01-15T06:08:54;1.30;99.90
52509;DHT22;38420;53.150;6.370;2024-01-15T06:11:20;1.40;99.90
52509;DHT22;38420;53.150;6.370;2024-01-15T06:13:45;1.30;99.90
52509;DHT22;38420;53.150;6.370;2024-01-15T06:16:17;1.20;99.90
52509;DHT22;38420;53.150;6.370;2024-01-15T06:18:45;1.30;99.90
52509;DHT22;38420;53.150;6.370;2024-01-15T06:21:11;1.50;99.90
52509;DHT22;38420;53.150;6.370;2024-01-15T06:23:38;1.20;99.90
52509;DHT22;38420;53.150;6.370;2024-01-15T06:26:04;1.30;99.90
52509;DHT22;38420;53.150;6.370;2024-01-15T06:28:30;1.40;99.90
52509;DHT22;38420;53.150;6.370;2024-01-15T06:30:56;1.10;99.90
52509;DHT22;38420;53.150;6.370;2024-01-15T06:33:22;1.20;99.90
52509;DHT22;38420;53.150;6.370;2024-01-15T06:35:47;1.30;99.90
52509;DHT22;38420;53.150;6.370;2024-01-15T06:38:13;1.40;99.90
52509;DHT22;38420;53.150;6.370;2024-01-15T06:40:38;1.20;99.90
52509;DHT22;38420;53.150;6.370;2024-01-15T06:43:07;1.50;99.90
52509;DHT22;38420;53.150;6.370;2024-01-15T06:45:32;1.60;99.90
52509;DHT22;38420;53.150;6.370;2024-01-15T06:47:58;1.60;99.90
52509;DHT22;38420;53.150;6.370;2024-01-15T06:50:24;1.40;99.90
52509;DHT22;38420;53.150;6.370;2024-01-15T06:52:49;1.60;99.90
52509;DHT22;38420;53.150;6.370;2024-01-15T06:55:15;1.60;99.90
52509;DHT22;38420;53.150;6.370;2024-01-15T06:57:41;1.50;99.90
52509;DHT22;38420;53.150;6.370;2024-01-15T07:00:07;1.40;99.90
52509;DHT22;38420;53.150;6.370;2024-01-15T07:02:33;1.60;99.90
52509;DHT22;38420;53.150;6.370;2024-01-15T07:04:59;1.40;99.90
52509;DHT22;38420;53.150;6.370;2024-01-15T07:07:24;1.40;99.90
52509;DHT22;38420;53.150;6.370;2024-01-15T07:09:54;1.40;99.90
52509;DHT22;38420;53.150;6.370;2024-01-15T07:12:19;1.50;99.90
52509;DHT22;38420;53.150;6.370;2024-01-15T07:14:45;1.50;99.90
52509;DHT22;38420;53.150;6.370;2024-01-15T07:17:11;1.50;99.90
52509;DHT22;38420;53.150;6.370;2024-01-15T07:19:36;1.40;99.90
52509;DHT22;38420;53.150;6.370;2024-01-15T07:22:02;1.50;99.90
52509;DHT22;38420;53.150;6.370;2024-01-15T07:24:27;1.60;99.90
52509;DHT22;38420;53.150;6.370;2024-01-15T07:26:53;1.50;99.90
52509;DHT22;38420;53.150;6.370;2024-01-15T07:29:19;1.50;99.90
52509;DHT22;38420;53.150;6.370;2024-01-15T07:31:51;1.60;99.90
52509;DHT22;38420;53.150;6.370;2024-01-15T07:34:17;1.60;99.90
52509;DHT22;38420;53.150;6.370;2024-01-15T07:36:46;1.70;99.90
52509;DHT22;38420;53.150;6.370;2024-01-15T07:39:11;1.70;99.90
52509;DHT22;38420;53.150;6.370;2024-01-15T07:41:37;1.60;99.90
52509;DHT22;38420;53.150;6.370;2024-01-15T07:44:03;1.60;99.90
52509;DHT22;38420;53.150;6.370;2024-01-15T07:46:29;1.50;99.90
52509;DHT22;38420;53.150;6.370;2024-01-15T07:48:54;1.50;99.90
52509;DHT22;38420;53.150;6.370;2024-01-15T07:51:26;1.40;99.90
52509;DHT22;38420;53.150;6.370;2024-01-15T07:53:54;1.60;99.90
52509;DHT22;38420;53.150;6.370;2024-01-15T07:56:21;1.40;99.90
52509;DHT22;38420;53.150;6.370;2024-01-15T07:58:47;1.60;99.90
52509;DHT22;38420;53.150;6.370;2024-01-15T08:01:12;1.50;99.90
52509;DHT22;38420;53.150;6.370;2024-01-15T08:03:38;1.40;99.90
52509;DHT22;38420;53.150;6.370;2024-01-15T08:06:05;1.50;99.90
52509;DHT22;38420;53.150;6.370;2024-01-15T08:08:30;1.30;99.90
52509;DHT22;38420;53.150;6.370;2024-01-15T08:10:56;1.30;99.90
52509;DHT22;38420;53.150;6.370;2024-01-15T08:13:21;1.40;99.90
52509;DHT22;38420;53.150;6.370;2024-01-15T08:15:47;1.50;99.90
52509;DHT22;38420;53.150;6.370;2024-01-15T08:18:13;1.30;99.90
52509;DHT22;38420;53.150;6.370;2024-01-15T08:20:39;1.20;99.90
52509;DHT22;38420;53.150;6.370;2024-01-15T08:23:04;1.30;99.90
52509;DHT22;38420;53.150;6.370;2024-01-15T08:25:30;1.30;99.90
52509;DHT22;38420;53.150;6.370;2024-01-15T08:27:57;1.30;99.90
52509;DHT22;38420;53.150;6.370;2024-01-15T08:30:23;1.30;99.90
52509;DHT22;38420;53.150;6.370;2024-01-15T08:32:53;1.30;99.90
52509;DHT22;38420;53.150;6.370;2024-01-15T08:35:18;1.40;99.90
52509;DHT22;38420;53.150;6.370;2024-01-15T08:37:51;1.60;99.90
52509;DHT22;38420;53.150;6.370;2024-01-15T08:40:17;1.50;99.90
52509;DHT22;38420;53.150;6.370;2024-01-15T08:42:43;1.60;99.90
52509;DHT22;38420;53.150;6.370;2024-01-15T08:45:08;1.60;99.90
52509;DHT22;38420;53.150;6.370;2024-01-15T08:47:34;1.60;99.90
52509;DHT22;38420;53.150;6.370;2024-01-15T08:50:01;1.70;99.90
52509;DHT22;38420;53.150;6.370;2024-01-15T08:52:27;1.80;99.90
52509;DHT22;38420;53.150;6.370;2024-01-15T08:54:53;1.80;99.90
52509;DHT22;38420;53.150;6.370;2024-01-15T08:57:18;1.90;99.90
52509;DHT22;38420;53.150;6.370;2024-01-15T08:59:44;1.70;99.90
52509;DHT22;38420;53.150;6.370;2024-01-15T09:02:10;1.80;99.90
52509;DHT22;38420;53.150;6.370;2024-01-15T09:04:36;1.60;99.90
52509;DHT22;38420;53.150;6.370;2024-01-15T09:07:01;1.70;99.90
52509;DHT22;38420;53.150;6.370;2024-01-15T09:09:28;1.70;99.90
52509;DHT22;38420;53.150;6.370;2024-01-15T09:11:54;1.50;99.90
52509;DHT22;38420;53.150;6.370;2024-01-15T09:14:19;1.70;99.90
52509;DHT22;38420;53.150;6.370;2024-01-15T09:16:47;1.50;99.90
52509;DHT22;38420;53.150;6.370;2024-01-15T09:19:13;1.60;99.90
52509;DHT22;38420;53.150;6.370;2024-01-15T09:21:39;1.70;99.90
52509;DHT22;38420;53.150;6.370;2024-01-15T09:24:05;1.60;99.90
52509;DHT22;38420;53.150;6.370;2024-01-15T09:26:31;1.80;99.90
52509;DHT22;38420;53.150;6.370;2024-01-15T09:28:57;1.70;99.90
52509;DHT22;38420;53.150;6.370;2024-01-15T09:31:23;1.80;99.90
52509;DHT22;38420;53.150;6.370;2024-01-15T09:33:49;1.80;99.90
52509;DHT22;38420;53.150;6.370;2024-01-15T09:36:18;1.60;99.90
52509;DHT22;38420;53.150;6.370;2024-01-15T09:38:43;1.70;99.90
52509;DHT22;38420;53.150;6.370;2024-01-15T09:41:09;1.50;99.90
52509;DHT22;38420;53.150;6.370;2024-01-15T09:43:36;1.70;99.90
52509;DHT22;38420;53.150;6.370;2024-01-15T09:46:03;1.50;99.90
52509;DHT22;38420;53.150;6.370;2024-01-15T09:48:29;1.60;99.90
52509;DHT22;38420;53.150;6.370;2024-01-15T09:50:55;1.70;99.90
52509;DHT22;38420;53.150;6.370;2024-01-15T09:53:23;1.50;99.90
52509;DHT22;38420;53.150;6.370;2024-01-15T09:55:50;1.60;99.90
52509;DHT22;38420;53.150;6.370;2024-01-15T09:58:15;1.80;99.90
52509;DHT22;38420;53.150;6.370;2024-01-15T10:00:42;1.80;99.90
52509;DHT22;38420;53.150;6.370;2024-01-15T10:03:09;1.70;99.90
52509;DHT22;38420;53.150;6.370;2024-01-15T10:05:37;1.70;99.90
52509;DHT22;38420;53.150;6.370;2024-01-15T10:08:03;2.00;99.90
52509;DHT22;38420;53.150;6.370;2024-01-15T10:10:29;2.00;99.90
52509;DHT22;38420;53.150;6.370;2024-01-15T10:12:55;2.10;99.90
52509;DHT22;38420;53.150;6.370;2024-01-15T10:15:24;2.30;99.90
52509;DHT22;38420;53.150;6.370;2024-01-15T10:17:51;2.20;99.90
52509;DHT22;38420;53.150;6.370;2024-01-15T10:20:17;2.60;99.90
52509;DHT22;38420;53.150;6.370;2024-01-15T10:22:44;2.60;99.90
52509;DHT22;38420;53.150;6.370;2024-01-15T10:25:13;2.60;99.90
52509;DHT22;38420;53.150;6.370;2024-01-15T10:27:40;2.50;99.90
52509;DHT22;38420;53.150;6.370;2024-01-15T10:30:07;2.70;99.90
52509;DHT22;38420;53.150;6.370;2024-01-15T10:32:33;2.70;99.90
52509;DHT22;38420;53.150;6.370;2024-01-15T10:34:59;2.70;99.90
52509;DHT22;38420;53.150;6.370;2024-01-15T10:37:24;2.60;99.90
52509;DHT22;38420;53.150;6.370;2024-01-15T10:39:51;2.70;99.90
52509;DHT22;38420;53.150;6.370;2024-01-15T10:42:16;2.60;99.90
52509;DHT22;38420;53.150;6.370;2024-01-15T10:44:44;2.50;99.90
52509;DHT22;38420;53.150;6.370;2024-01-15T10:47:09;2.10;99.90
52509;DHT22;38420;53.150;6.370;2024-01-15T10:49:36;2.30;99.90
52509;DHT22;38420;53.150;6.370;2024-01-15T10:52:02;2.20;99.90
52509;DHT22;38420;53.150;6.370;2024-01-15T10:54:29;2.10;99.90
52509;DHT22;38420;53.150;6.370;2024-01-15T10:56:56;2.20;99.90
52509;DHT22;38420;53.150;6.370;2024-01-15T10:59:22;2.40;99.90
52509;DHT22;38420;53.150;6.370;2024-01-15T11:01:49;2.20;99.90
52509;DHT22;38420;53.150;6.370;2024-01-15T11:04:15;2.50;99.90
52509;DHT22;38420;53.150;6.370;2024-01-15T11:06:47;2.60;99.90
52509;DHT22;38420;53.150;6.370;2024-01-15T11:09:13;2.50;99.90
52509;DHT22;38420;53.150;6.370;2024-01-15T11:11:42;2.30;99.90
52509;DHT22;38420;53.150;6.370;2024-01-15T11:14:09;2.40;99.90
52509;DHT22;38420;53.150;6.370;2024-01-15T11:16:54;2.30;99.90
52509;DHT22;38420;53.150;6.370;2024-01-15T11:19:20;2.30;99.90
52509;DHT22;38420;53.150;6.370;2024-01-15T11:21:45;2.60;99.90
52509;DHT22;38420;53.150;6.370;2024-01-15T11:24:38;2.40;99.90
52509;DHT22;38420;53.150;6.370;2024-01-15T11:27:04;2.50;99.90
52509;DHT22;38420;53.150;6.370;2024-01-15T11:29:35;2.60;99.90
52509;DHT22;38420;53.150;6.370;2024-01-15T11:32:07;2.60;99.90
52509;DHT22;38420;53.150;6.370;2024-01-15T11:34:56;2.50;99.90
52509;DHT22;38420;53.150;6.370;2024-01-15T11:37:28;2.30;99.90
52509;DHT22;38420;53.150;6.370;2024-01-15T11:40:03;2.00;99.90
52509;DHT22;38420;53.150;6.370;2024-01-15T11:42:29;2.00;99.90
52509;DHT22;38420;53.150;6.370;2024-01-15T11:44:55;1.90;99.90
52509;DHT22;38420;53.150;6.370;2024-01-15T11:50:21;1.50;99.90
52509;DHT22;38420;53.150;6.370;2024-01-15T11:53:01;1.70;99.90
52509;DHT22;38420;53.150;6.370;2024-01-15T11:55:34;1.50;99.90
52509;DHT22;38420;53.150;6.370;2024-01-15T11:58:02;1.60;99.90
52509;DHT22;38420;53.150;6.370;2024-01-15T12:00:28;1.30;99.90
52509;DHT22;38420;53.150;6.370;2024-01-15T12:02:54;1.70;99.90
52509;DHT22;38420;53.150;6.370;2024-01-15T12:05:22;1.40;99.90
52509;DHT22;38420;53.150;6.370;2024-01-15T12:07:49;1.60;99.90
52509;DHT22;38420;53.150;6.370;2024-01-15T12:13:05;2.00;99.90
52509;DHT22;38420;53.150;6.370;2024-01-15T12:15:32;1.80;99.90
52509;DHT22;38420;53.150;6.370;2024-01-15T12:18:00;2.10;99.90
52509;DHT22;38420;53.150;6.370;2024-01-15T12:20:28;2.10;99.90
52509;DHT22;38420;53.150;6.370;2024-01-15T12:22:55;2.20;99.90
52509;DHT22;38420;53.150;6.370;2024-01-15T12:25:24;1.90;99.90
52509;DHT22;38420;53.150;6.370;2024-01-15T12:27:51;2.30;99.90
52509;DHT22;38420;53.150;6.370;2024-01-15T12:30:17;1.90;99.90
52509;DHT22;38420;53.150;6.370;2024-01-15T12:32:44;2.20;99.90
52509;DHT22;38420;53.150;6.370;2024-01-15T12:35:10;2.30;99.90
52509;DHT22;38420;53.150;6.370;2024-01-15T12:37:40;2.20;99.90
52509;DHT22;38420;53.150;6.370;2024-01-15T12:40:07;2.30;99.90
52509;DHT22;38420;53.150;6.370;2024-01-15T12:42:41;2.60;99.90
52509;DHT22;38420;53.150;6.370;2024-01-15T12:45:08;2.70;99.90
52509;DHT22;38420;53.150;6.370;2024-01-15T12:47:34;2.70;99.90
52509;DHT22;38420;53.150;6.370;2024-01-15T12:50:00;2.50;99.90
52509;DHT22;38420;53.150;6.370;2024-01-15T12:52:29;2.50;99.90
52509;DHT22;38420;53.150;6.370;2024-01-15T12:54:55;2.70;99.90
52509;DHT22;38420;53.150;6.370;2024-01-15T12:57:21;2.70;99.90
52509;DHT22;38420;53.150;6.370;2024-01-15T12:59:47;2.70;99.90
52509;DHT22;38420;53.150;6.370;2024-01-15T13:02:16;2.50;99.90
52509;DHT22;38420;53.150;6.370;2024-01-15T13:04:42;2.70;99.90
52509;DHT22;38420;53.150;6.370;2024-01-15T13:07:08;2.40;99.90
52509;DHT22;38420;53.150;6.370;2024-01-15T13:09:34;2.30;99.90
52509;DHT22;38420;53.150;6.370;2024-01-15T13:12:03;2.40;99.90
52509;DHT22;38420;53.150;6.370;2024-01-15T13:14:29;2.10;99.90
52509;DHT22;38420;53.150;6.370;2024-01-15T13:16:55;2.10;99.90
52509;DHT22;38420;53.150;6.370;2024-01-15T13:19:21;2.10;99.90
52509;DHT22;38420;53.150;6.370;2024-01-15T13:21:47;2.40;99.90
52509;DHT22;38420;53.150;6.370;2024-01-15T13:24:13;3.00;99.90
52509;DHT22;38420;53.150;6.370;2024-01-15T13:26:39;3.20;99.90
52509;DHT22;38420;53.150;6.370;2024-01-15T13:29:06;3.00;99.90
52509;DHT22;38420;53.150;6.370;2024-01-15T13:31:32;2.90;99.90
52509;DHT22;38420;53.150;6.370;2024-01-15T13:33:58;2.80;99.90
52509;DHT22;38420;53.150;6.370;2024-01-15T13:36:26;2.70;99.90
52509;DHT22;38420;53.150;6.370;2024-01-15T13:38:53;2.60;99.90
52509;DHT22;38420;53.150;6.370;2024-01-15T13:41:22;2.70;99.90
52509;DHT22;38420;53.150;6.370;2024-01-15T13:43:55;2.90;99.90
52509;DHT22;38420;53.150;6.370;2024-01-15T13:46:23;3.60;99.90
52509;DHT22;38420;53.150;6.370;2024-01-15T13:48:49;3.80;99.90
52509;DHT22;38420;53.150;6.370;2024-01-15T13:51:15;3.90;99.90
52509;DHT22;38420;53.150;6.370;2024-01-15T13:53:41;3.60;99.90
52509;DHT22;38420;53.150;6.370;2024-01-15T13:56:07;3.40;99.90
52509;DHT22;38420;53.150;6.370;2024-01-15T13:58:33;3.20;99.90
52509;DHT22;38420;53.150;6.370;2024-01-15T14:01:02;3.00;99.90
52509;DHT22;38420;53.150;6.370;2024-01-15T14:03:31;3.00;99.90
52509;DHT22;38420;53.150;6.370;2024-01-15T14:05:57;2.80;99.90
52509;DHT22;38420;53.150;6.370;2024-01-15T14:08:23;2.60;99.90
52509;DHT22;38420;53.150;6.370;2024-01-15T14:10:49;2.60;99.90
52509;DHT22;38420;53.150;6.370;2024-01-15T14:13:14;2.40;99.90
52509;DHT22;38420;53.150;6.370;2024-01-15T14:15:40;2.50;99.90
52509;DHT22;38420;53.150;6.370;2024-01-15T14:18:05;2.30;99.90
52509;DHT22;38420;53.150;6.370;2024-01-15T14:20:31;2.40;99.90
52509;DHT22;38420;53.150;6.370;2024-01-15T14:22:57;2.50;99.90
52509;DHT22;38420;53.150;6.370;2024-01-15T14:25:22;2.50;99.90
52509;DHT22;38420;53.150;6.370;2024-01-15T14:27:49;2.70;99.90
52509;DHT22;38420;53.150;6.370;2024-01-15T14:30:15;2.60;99.90
52509;DHT22;38420;53.150;6.370;2024-01-15T14:32:42;2.60;99.90
52509;DHT22;38420;53.150;6.370;2024-01-15T14:35:08;2.80;99.90
52509;DHT22;38420;53.150;6.370;2024-01-15T14:37:37;2.90;99.90
52509;DHT22;38420;53.150;6.370;2024-01-15T14:40:04;2.80;99.90
52509;DHT22;38420;53.150;6.370;2024-01-15T14:42:30;3.00;99.90
52509;DHT22;38420;53.150;6.370;2024-01-15T14:44:56;2.90;99.90
52509;DHT22;38420;53.150;6.370;2024-01-15T14:47:22;2.90;99.90
52509;DHT22;38420;53.150;6.370;2024-01-15T14:49:49;2.90;99.90
52509;DHT22;38420;53.150;6.370;2024-01-15T14:52:15;2.80;99.90
52509;DHT22;38420;53.150;6.370;2024-01-15T14:54:41;2.80;99.90
52509;DHT22;38420;53.150;6.370;2024-01-15T14:57:07;2.80;99.90
52509;DHT22;38420;53.150;6.370;2024-01-15T14:59:32;2.40;99.90
52509;DHT22;38420;53.150;6.370;2024-01-15T15:01:58;2.10;99.90
52509;DHT22;38420;53.150;6.370;2024-01-15T15:04:24;1.70;99.90
52509;DHT22;38420;53.150;6.370;2024-01-15T15:06:49;1.50;99.90
52509;DHT22;38420;53.150;6.370;2024-01-15T15:09:15;1.50;99.90
52509;DHT22;38420;53.150;6.370;2024-01-15T15:11:41;1.50;99.90
52509;DHT22;38420;53.150;6.370;2024-01-15T15:14:07;1.20;99.90
52509;DHT22;38420;53.150;6.370;2024-01-15T15:16:32;1.50;99.90
52509;DHT22;38420;53.150;6.370;2024-01-15T15:18:58;1.40;99.90
52509;DHT22;38420;53.150;6.370;2024-01-15T15:21:23;1.10;99.90
52509;DHT22;38420;53.150;6.370;2024-01-15T15:23:49;1.10;99.90
52509;DHT22;38420;53.150;6.370;2024-01-15T15:26:15;1.40;99.90
52509;DHT22;38420;53.150;6.370;2024-01-15T15:28:40;1.20;99.90
52509;DHT22;38420;53.150;6.370;2024-01-15T15:31:06;1.40;99.90
52509;DHT22;38420;53.150;6.370;2024-01-15T15:33:36;1.40;99.90
52509;DHT22;38420;53.150;6.370;2024-01-15T15:36:02;1.10;99.90
52509;DHT22;38420;53.150;6.370;2024-01-15T15:38:33;1.40;99.90
52509;DHT22;38420;53.150;6.370;2024-01-15T15:40:59;1.30;99.90
52509;DHT22;38420;53.150;6.370;2024-01-15T15:43:28;1.20;99.90
52509;DHT22;38420;53.150;6.370;2024-01-15T15:45:55;1.50;99.90